createdAt,value
2023-05-15T00:13:08.277Z,6.20
2023-05-15T00:28:10.173Z,7.70
2023-05-15T00:43:12.656Z,8.30
2023-05-15T00:58:18.537Z,7.97
2023-05-15T01:13:22.137Z,7.70
2023-05-15T01:28:48.759Z,7.77
2023-05-15T01:43:57.926Z,8.23
2023-05-15T01:59:01.156Z,7.83
2023-05-15T02:14:05.185Z,8.30
2023-05-15T02:29:22.337Z,8.33
2023-05-15T02:44:26.089Z,11.17
2023-05-15T02:59:28.208Z,8.63
2023-05-15T03:14:30.202Z,8.93
2023-05-15T03:29:32.172Z,10.40
2023-05-15T03:44:34.219Z,11.63
2023-05-15T03:59:36.508Z,10.50
2023-05-15T04:14:38.501Z,10.27
2023-05-15T04:29:40.783Z,11.93
2023-05-15T04:44:43.112Z,11.97
2023-05-15T04:59:45.074Z,11.73
2023-05-15T05:14:47.104Z,11.50
2023-05-15T05:29:49.085Z,9.60
2023-05-15T05:44:51.077Z,11.47
2023-05-15T05:59:53.201Z,10.00
2023-05-15T06:14:55.176Z,10.50
2023-05-15T06:29:57.306Z,12.67
2023-05-15T06:44:59.800Z,14.63
2023-05-15T07:00:01.804Z,7.43
2023-05-15T07:15:04.682Z,8.27
2023-05-15T07:30:07.221Z,10.37
2023-05-15T07:45:09.571Z,14.70
2023-05-15T08:00:12.914Z,15.17
2023-05-15T08:15:15.321Z,19.83
2023-05-15T08:30:17.335Z,17.00
2023-05-15T08:45:20.252Z,16.33
2023-05-15T09:00:25.350Z,15.50
2023-05-15T09:15:28.511Z,14.83
2023-05-15T09:30:31.364Z,16.53
2023-05-15T09:45:33.340Z,19.90
2023-05-15T10:00:36.626Z,14.67
2023-05-15T10:15:52.419Z,14.93
2023-05-15T10:30:56.218Z,12.47
2023-05-15T10:45:58.994Z,12.83
2023-05-15T11:01:01.162Z,15.03
2023-05-15T11:16:03.113Z,16.57
2023-05-15T11:31:07.138Z,13.40
2023-05-15T11:46:11.196Z,20.53
2023-05-15T12:01:13.367Z,11.23
2023-05-15T12:16:15.325Z,12.93
2023-05-15T12:31:18.422Z,18.57
2023-05-15T12:46:26.307Z,18.93
2023-05-15T13:01:29.181Z,17.63
2023-05-15T13:16:33.187Z,13.40
2023-05-15T13:31:35.245Z,13.97
2023-05-15T13:46:37.192Z,15.17
2023-05-15T14:01:39.173Z,12.27
2023-05-15T14:16:41.105Z,10.93
2023-05-15T14:31:43.312Z,12.33
2023-05-15T14:46:45.414Z,10.87
2023-05-15T15:01:47.476Z,15.30
2023-05-15T15:16:49.512Z,10.83
2023-05-15T15:31:51.577Z,9.23
2023-05-15T15:46:53.464Z,12.10
2023-05-15T16:01:55.820Z,8.07
2023-05-15T16:16:58.219Z,8.77
2023-05-15T16:32:00.318Z,10.53
2023-05-15T16:47:02.267Z,16.20
2023-05-15T17:02:04.388Z,13.87
2023-05-15T17:17:06.351Z,14.67
2023-05-15T17:32:08.495Z,16.60
2023-05-15T17:47:10.748Z,17.03
2023-05-15T18:02:12.725Z,14.33
2023-05-15T18:17:14.755Z,15.90
2023-05-15T18:32:16.751Z,12.47
2023-05-15T18:47:18.734Z,13.83
2023-05-15T19:02:21.072Z,21.13
2023-05-15T19:17:24.494Z,15.03
2023-05-15T19:32:26.754Z,15.80
2023-05-15T19:47:28.692Z,16.87
2023-05-15T20:02:30.938Z,17.00
2023-05-15T20:17:33.814Z,16.97
2023-05-15T20:32:36.426Z,16.60
2023-05-15T20:47:38.482Z,15.80
2023-05-15T21:02:40.486Z,21.17
2023-05-15T21:17:42.470Z,21.30
2023-05-15T21:32:44.413Z,19.77
2023-05-15T21:47:46.364Z,19.07
2023-05-15T22:02:48.449Z,14.47
2023-05-15T22:17:50.559Z,15.30
2023-05-15T22:32:52.497Z,16.50
2023-05-15T22:47:54.444Z,18.47
2023-05-15T23:02:57.659Z,14.50
2023-05-15T23:17:59.731Z,14.97
2023-05-15T23:33:01.776Z,16.67
2023-05-15T23:48:03.857Z,16.33
